Juanita, Washington
Current Conditions -  °F | °C
As of 9:53 PM on Tuesday 21 Oct 2014 (Local Time) from KBFI Reporting Station
Light Rain Light Rain  
Wind Chill: 60°   Ceiling: 8500
Heat Index: 60°   Visibility: 10mi
Dew Point: 48°   Wind: 10mph
Humidity: 64%   Direction: 140°SE
Pressure: 29.78"   Gusts: NA
Location:  47.7179°N, 122.204°W
Report Text: KBFI 220453Z 14009KT 10SM -RA OVC085 16/09 A2978 RMK AO2 RAB49 SLP085 P0000 T01560089
Loading
Personal Weather Stations






























Interactive Weather Map
Tropical Storm Tracking
New forecast layout! Learn more

10-Day Weather Forecast

Advertisements
Track Severe Weather on mobile